Terminal Aerodrome Forecast
Issued by NWS

Current Version | Previous Version | Text Only | Print | Product List | Glossary Off
Versions: 1 2 3 4 5 6 7 8 9 10 11 12 13 14 15 16 17

000
FTUS41 KPBZ 252100 AAA
TAFMGW
TAF AMD
KMGW 252102Z 2521/2618 24007KT P6SM BKN035
     FM260600 22003KT P6SM SCT025
     FM261200 21003KT P6SM SKC=

USA.gov is the U.S. government's official web portal to all federal, state and local government web resources and services.